sensor_id;sensor_type;location;lat;lon;timestamp;P1;durP1;ratioP1;P2;durP2;ratioP2
56720;SDS011;53183;47.412;18.884;2023-05-10T00:00:48;4.90;;;2.80;;
56720;SDS011;53183;47.412;18.884;2023-05-10T00:03:15;3.90;;;2.67;;
56720;SDS011;53183;47.412;18.884;2023-05-10T00:05:43;4.47;;;3.10;;
56720;SDS011;53183;47.412;18.884;2023-05-10T00:08:10;4.18;;;3.17;;
56720;SDS011;53183;47.412;18.884;2023-05-10T00:10:38;5.12;;;2.70;;
56720;SDS011;53183;47.412;18.884;2023-05-10T00:13:05;4.00;;;2.75;;
56720;SDS011;53183;47.412;18.884;2023-05-10T00:15:32;4.70;;;2.87;;
56720;SDS011;53183;47.412;18.884;2023-05-10T00:18:01;4.70;;;2.90;;
56720;SDS011;53183;47.412;18.884;2023-05-10T00:20:28;5.72;;;3.08;;
56720;SDS011;53183;47.412;18.884;2023-05-10T00:22:56;6.10;;;3.28;;
56720;SDS011;53183;47.412;18.884;2023-05-10T00:25:23;6.22;;;3.03;;
56720;SDS011;53183;47.412;18.884;2023-05-10T00:27:50;4.15;;;2.92;;
56720;SDS011;53183;47.412;18.884;2023-05-10T00:30:18;4.93;;;3.20;;
56720;SDS011;53183;47.412;18.884;2023-05-10T00:32:46;5.95;;;3.30;;
56720;SDS011;53183;47.412;18.884;2023-05-10T00:35:15;6.90;;;3.37;;
56720;SDS011;53183;47.412;18.884;2023-05-10T00:37:42;4.53;;;2.90;;
56720;SDS011;53183;47.412;18.884;2023-05-10T00:40:10;7.05;;;3.40;;
56720;SDS011;53183;47.412;18.884;2023-05-10T00:42:37;4.55;;;3.33;;
56720;SDS011;53183;47.412;18.884;2023-05-10T00:45:06;4.68;;;3.12;;
56720;SDS011;53183;47.412;18.884;2023-05-10T00:47:34;8.05;;;3.47;;
56720;SDS011;53183;47.412;18.884;2023-05-10T00:50:02;7.03;;;3.33;;
56720;SDS011;53183;47.412;18.884;2023-05-10T00:52:29;5.72;;;2.97;;
56720;SDS011;53183;47.412;18.884;2023-05-10T00:54:57;10.05;;;3.58;;
56720;SDS011;53183;47.412;18.884;2023-05-10T00:57:25;6.07;;;3.37;;
56720;SDS011;53183;47.412;18.884;2023-05-10T00:59:52;6.97;;;3.53;;
56720;SDS011;53183;47.412;18.884;2023-05-10T01:02:19;4.47;;;2.75;;
56720;SDS011;53183;47.412;18.884;2023-05-10T01:04:46;4.90;;;3.45;;
56720;SDS011;53183;47.412;18.884;2023-05-10T01:07:13;4.90;;;3.12;;
56720;SDS011;53183;47.412;18.884;2023-05-10T01:09:42;4.82;;;3.33;;
56720;SDS011;53183;47.412;18.884;2023-05-10T01:12:10;5.55;;;3.78;;
56720;SDS011;53183;47.412;18.884;2023-05-10T01:14:38;4.72;;;3.42;;
56720;SDS011;53183;47.412;18.884;2023-05-10T01:17:06;5.18;;;2.67;;
56720;SDS011;53183;47.412;18.884;2023-05-10T01:19:35;6.57;;;4.10;;
56720;SDS011;53183;47.412;18.884;2023-05-10T01:27:16;5.43;;;3.67;;
56720;SDS011;53183;47.412;18.884;2023-05-10T01:35:35;6.03;;;3.42;;
56720;SDS011;53183;47.412;18.884;2023-05-10T01:38:11;5.82;;;3.55;;
56720;SDS011;53183;47.412;18.884;2023-05-10T01:43:24;6.78;;;4.50;;
56720;SDS011;53183;47.412;18.884;2023-05-10T01:45:59;8.45;;;4.60;;
56720;SDS011;53183;47.412;18.884;2023-05-10T01:48:51;6.82;;;4.00;;
56720;SDS011;53183;47.412;18.884;2023-05-10T01:53:51;5.22;;;3.70;;
56720;SDS011;53183;47.412;18.884;2023-05-10T01:56:28;6.78;;;3.80;;
56720;SDS011;53183;47.412;18.884;2023-05-10T01:58:57;7.32;;;3.60;;
56720;SDS011;53183;47.412;18.884;2023-05-10T02:01:27;6.68;;;4.47;;
56720;SDS011;53183;47.412;18.884;2023-05-10T02:03:55;5.87;;;3.55;;
56720;SDS011;53183;47.412;18.884;2023-05-10T02:06:23;8.63;;;3.80;;
56720;SDS011;53183;47.412;18.884;2023-05-10T02:08:51;4.87;;;3.42;;
56720;SDS011;53183;47.412;18.884;2023-05-10T02:11:20;5.65;;;3.67;;
56720;SDS011;53183;47.412;18.884;2023-05-10T02:13:50;6.90;;;4.45;;
56720;SDS011;53183;47.412;18.884;2023-05-10T02:18:53;6.22;;;3.35;;
56720;SDS011;53183;47.412;18.884;2023-05-10T02:21:23;5.72;;;4.07;;
56720;SDS011;53183;47.412;18.884;2023-05-10T02:23:53;7.90;;;3.80;;
56720;SDS011;53183;47.412;18.884;2023-05-10T02:26:21;6.95;;;3.72;;
56720;SDS011;53183;47.412;18.884;2023-05-10T02:28:51;6.50;;;4.10;;
56720;SDS011;53183;47.412;18.884;2023-05-10T02:31:20;7.07;;;4.35;;
56720;SDS011;53183;47.412;18.884;2023-05-10T02:33:49;7.18;;;4.22;;
56720;SDS011;53183;47.412;18.884;2023-05-10T02:36:17;5.07;;;3.72;;
56720;SDS011;53183;47.412;18.884;2023-05-10T02:38:47;6.43;;;3.78;;
56720;SDS011;53183;47.412;18.884;2023-05-10T02:41:16;6.05;;;3.12;;
56720;SDS011;53183;47.412;18.884;2023-05-10T02:43:48;6.93;;;3.37;;
56720;SDS011;53183;47.412;18.884;2023-05-10T02:46:18;4.68;;;3.42;;
56720;SDS011;53183;47.412;18.884;2023-05-10T02:48:45;4.82;;;2.92;;
56720;SDS011;53183;47.412;18.884;2023-05-10T02:51:13;5.35;;;3.42;;
56720;SDS011;53183;47.412;18.884;2023-05-10T02:53:45;4.90;;;3.12;;
56720;SDS011;53183;47.412;18.884;2023-05-10T02:56:25;6.15;;;3.17;;
56720;SDS011;53183;47.412;18.884;2023-05-10T02:58:55;6.32;;;3.50;;
56720;SDS011;53183;47.412;18.884;2023-05-10T03:01:23;5.53;;;3.35;;
56720;SDS011;53183;47.412;18.884;2023-05-10T03:03:50;4.87;;;3.17;;
56720;SDS011;53183;47.412;18.884;2023-05-10T03:06:17;5.65;;;3.47;;
56720;SDS011;53183;47.412;18.884;2023-05-10T03:08:45;9.73;;;3.65;;
56720;SDS011;53183;47.412;18.884;2023-05-10T03:16:22;6.82;;;3.92;;
56720;SDS011;53183;47.412;18.884;2023-05-10T03:18:55;7.10;;;3.72;;
56720;SDS011;53183;47.412;18.884;2023-05-10T03:21:29;5.70;;;3.67;;
56720;SDS011;53183;47.412;18.884;2023-05-10T03:24:15;8.82;;;3.05;;
56720;SDS011;53183;47.412;18.884;2023-05-10T03:26:46;10.35;;;4.03;;
56720;SDS011;53183;47.412;18.884;2023-05-10T03:29:16;4.57;;;3.37;;
56720;SDS011;53183;47.412;18.884;2023-05-10T03:31:44;7.68;;;3.80;;
56720;SDS011;53183;47.412;18.884;2023-05-10T03:34:13;4.87;;;3.40;;
56720;SDS011;53183;47.412;18.884;2023-05-10T03:36:40;4.87;;;3.55;;
56720;SDS011;53183;47.412;18.884;2023-05-10T03:39:08;5.45;;;3.60;;
56720;SDS011;53183;47.412;18.884;2023-05-10T03:41:36;7.25;;;3.53;;
56720;SDS011;53183;47.412;18.884;2023-05-10T03:44:04;7.90;;;3.75;;
56720;SDS011;53183;47.412;18.884;2023-05-10T03:46:31;6.43;;;3.40;;
56720;SDS011;53183;47.412;18.884;2023-05-10T03:48:58;7.10;;;3.83;;
56720;SDS011;53183;47.412;18.884;2023-05-10T03:51:26;7.28;;;3.70;;
56720;SDS011;53183;47.412;18.884;2023-05-10T03:53:54;6.62;;;3.50;;
56720;SDS011;53183;47.412;18.884;2023-05-10T03:56:22;4.53;;;2.80;;
56720;SDS011;53183;47.412;18.884;2023-05-10T03:58:50;9.90;;;3.58;;
56720;SDS011;53183;47.412;18.884;2023-05-10T04:01:17;7.82;;;4.10;;
56720;SDS011;53183;47.412;18.884;2023-05-10T04:03:45;5.05;;;3.65;;
56720;SDS011;53183;47.412;18.884;2023-05-10T04:06:13;6.18;;;3.90;;
56720;SDS011;53183;47.412;18.884;2023-05-10T04:08:40;4.85;;;3.37;;
56720;SDS011;53183;47.412;18.884;2023-05-10T04:11:08;8.90;;;3.83;;
56720;SDS011;53183;47.412;18.884;2023-05-10T04:13:37;6.25;;;3.60;;
56720;SDS011;53183;47.412;18.884;2023-05-10T04:16:05;5.65;;;3.70;;
56720;SDS011;53183;47.412;18.884;2023-05-10T04:18:32;7.97;;;3.67;;
56720;SDS011;53183;47.412;18.884;2023-05-10T04:20:59;2.92;;;1.98;;
56720;SDS011;53183;47.412;18.884;2023-05-10T04:23:27;10.07;;;3.67;;
56720;SDS011;53183;47.412;18.884;2023-05-10T04:26:01;9.88;;;4.65;;
56720;SDS011;53183;47.412;18.884;2023-05-10T04:28:28;4.80;;;3.50;;
56720;SDS011;53183;47.412;18.884;2023-05-10T04:35:58;7.15;;;4.10;;
56720;SDS011;53183;47.412;18.884;2023-05-10T04:38:25;7.72;;;4.72;;
56720;SDS011;53183;47.412;18.884;2023-05-10T04:40:53;9.02;;;4.10;;
56720;SDS011;53183;47.412;18.884;2023-05-10T04:43:21;10.95;;;3.70;;
56720;SDS011;53183;47.412;18.884;2023-05-10T04:45:48;5.12;;;3.62;;
56720;SDS011;53183;47.412;18.884;2023-05-10T04:48:16;5.80;;;3.95;;
56720;SDS011;53183;47.412;18.884;2023-05-10T04:50:44;7.85;;;3.72;;
56720;SDS011;53183;47.412;18.884;2023-05-10T04:53:11;7.62;;;3.97;;
56720;SDS011;53183;47.412;18.884;2023-05-10T04:55:41;8.68;;;4.68;;
56720;SDS011;53183;47.412;18.884;2023-05-10T04:58:09;10.10;;;3.87;;
56720;SDS011;53183;47.412;18.884;2023-05-10T05:00:36;7.03;;;4.15;;
56720;SDS011;53183;47.412;18.884;2023-05-10T05:03:03;6.47;;;3.58;;
56720;SDS011;53183;47.412;18.884;2023-05-10T05:05:31;7.18;;;3.42;;
56720;SDS011;53183;47.412;18.884;2023-05-10T05:08:21;8.55;;;4.00;;
56720;SDS011;53183;47.412;18.884;2023-05-10T05:10:48;7.12;;;3.75;;
56720;SDS011;53183;47.412;18.884;2023-05-10T05:13:16;9.15;;;4.28;;
56720;SDS011;53183;47.412;18.884;2023-05-10T05:15:44;4.82;;;3.37;;
56720;SDS011;53183;47.412;18.884;2023-05-10T05:18:12;5.07;;;3.83;;
56720;SDS011;53183;47.412;18.884;2023-05-10T05:20:39;6.78;;;4.35;;
56720;SDS011;53183;47.412;18.884;2023-05-10T05:23:06;5.15;;;3.03;;
56720;SDS011;53183;47.412;18.884;2023-05-10T05:25:33;4.75;;;3.22;;
56720;SDS011;53183;47.412;18.884;2023-05-10T05:28:00;4.85;;;3.20;;
56720;SDS011;53183;47.412;18.884;2023-05-10T05:30:28;6.20;;;3.60;;
56720;SDS011;53183;47.412;18.884;2023-05-10T05:32:55;5.90;;;3.80;;
56720;SDS011;53183;47.412;18.884;2023-05-10T05:35:23;7.72;;;4.25;;
56720;SDS011;53183;47.412;18.884;2023-05-10T05:37:50;6.65;;;3.37;;
56720;SDS011;53183;47.412;18.884;2023-05-10T05:40:18;4.45;;;3.60;;
56720;SDS011;53183;47.412;18.884;2023-05-10T05:42:45;9.65;;;3.12;;
56720;SDS011;53183;47.412;18.884;2023-05-10T05:45:12;8.05;;;3.20;;
56720;SDS011;53183;47.412;18.884;2023-05-10T05:47:40;5.53;;;3.17;;
56720;SDS011;53183;47.412;18.884;2023-05-10T05:50:07;4.70;;;3.15;;
56720;SDS011;53183;47.412;18.884;2023-05-10T05:52:35;3.75;;;2.72;;
56720;SDS011;53183;47.412;18.884;2023-05-10T05:55:03;5.85;;;3.12;;
56720;SDS011;53183;47.412;18.884;2023-05-10T05:57:30;6.15;;;3.12;;
56720;SDS011;53183;47.412;18.884;2023-05-10T05:59:57;13.32;;;3.83;;
56720;SDS011;53183;47.412;18.884;2023-05-10T06:02:25;5.70;;;2.65;;
56720;SDS011;53183;47.412;18.884;2023-05-10T06:04:52;4.05;;;2.62;;
56720;SDS011;53183;47.412;18.884;2023-05-10T06:07:20;7.12;;;3.42;;
56720;SDS011;53183;47.412;18.884;2023-05-10T06:09:47;5.93;;;2.67;;
56720;SDS011;53183;47.412;18.884;2023-05-10T06:12:14;9.63;;;2.75;;
56720;SDS011;53183;47.412;18.884;2023-05-10T06:14:41;8.77;;;3.92;;
56720;SDS011;53183;47.412;18.884;2023-05-10T06:17:08;3.15;;;2.45;;
56720;SDS011;53183;47.412;18.884;2023-05-10T06:19:36;5.97;;;2.67;;
56720;SDS011;53183;47.412;18.884;2023-05-10T06:22:03;7.03;;;2.72;;
56720;SDS011;53183;47.412;18.884;2023-05-10T06:24:30;12.10;;;2.92;;
56720;SDS011;53183;47.412;18.884;2023-05-10T06:26:57;4.93;;;2.83;;
56720;SDS011;53183;47.412;18.884;2023-05-10T06:29:26;7.25;;;2.75;;
56720;SDS011;53183;47.412;18.884;2023-05-10T06:31:53;10.38;;;3.45;;
56720;SDS011;53183;47.412;18.884;2023-05-10T06:34:21;3.33;;;2.55;;
56720;SDS011;53183;47.412;18.884;2023-05-10T06:36:48;3.58;;;2.62;;
56720;SDS011;53183;47.412;18.884;2023-05-10T06:39:15;9.85;;;2.87;;
56720;SDS011;53183;47.412;18.884;2023-05-10T06:41:43;5.40;;;2.85;;
56720;SDS011;53183;47.412;18.884;2023-05-10T06:44:10;5.00;;;2.87;;
56720;SDS011;53183;47.412;18.884;2023-05-10T06:46:37;5.57;;;2.87;;
56720;SDS011;53183;47.412;18.884;2023-05-10T06:49:04;6.57;;;2.83;;
56720;SDS011;53183;47.412;18.884;2023-05-10T06:51:31;3.92;;;2.58;;
56720;SDS011;53183;47.412;18.884;2023-05-10T06:53:59;9.65;;;2.97;;
56720;SDS011;53183;47.412;18.884;2023-05-10T06:56:27;5.00;;;2.80;;
56720;SDS011;53183;47.412;18.884;2023-05-10T06:58:54;6.05;;;2.62;;
56720;SDS011;53183;47.412;18.884;2023-05-10T07:01:22;5.43;;;2.87;;
56720;SDS011;53183;47.412;18.884;2023-05-10T07:15:53;10.10;;;3.75;;
56720;SDS011;53183;47.412;18.884;2023-05-10T07:18:21;7.60;;;3.65;;
56720;SDS011;53183;47.412;18.884;2023-05-10T07:20:48;6.57;;;3.05;;
56720;SDS011;53183;47.412;18.884;2023-05-10T07:23:15;7.82;;;3.95;;
56720;SDS011;53183;47.412;18.884;2023-05-10T07:25:45;4.35;;;2.95;;
56720;SDS011;53183;47.412;18.884;2023-05-10T07:28:13;4.43;;;3.05;;
56720;SDS011;53183;47.412;18.884;2023-05-10T07:30:42;10.55;;;3.65;;
56720;SDS011;53183;47.412;18.884;2023-05-10T07:33:10;12.93;;;4.57;;
56720;SDS011;53183;47.412;18.884;2023-05-10T07:35:39;5.18;;;3.28;;
56720;SDS011;53183;47.412;18.884;2023-05-10T07:38:06;4.70;;;3.58;;
56720;SDS011;53183;47.412;18.884;2023-05-10T07:40:33;5.28;;;2.78;;
56720;SDS011;53183;47.412;18.884;2023-05-10T07:43:01;5.20;;;2.40;;
56720;SDS011;53183;47.412;18.884;2023-05-10T07:45:28;4.75;;;2.90;;
56720;SDS011;53183;47.412;18.884;2023-05-10T07:47:56;5.65;;;3.33;;
56720;SDS011;53183;47.412;18.884;2023-05-10T07:50:23;3.80;;;2.67;;
56720;SDS011;53183;47.412;18.884;2023-05-10T07:52:51;8.63;;;3.50;;
56720;SDS011;53183;47.412;18.884;2023-05-10T07:55:18;4.43;;;2.65;;
56720;SDS011;53183;47.412;18.884;2023-05-10T07:57:47;4.30;;;2.92;;
56720;SDS011;53183;47.412;18.884;2023-05-10T08:00:18;16.60;;;5.35;;
56720;SDS011;53183;47.412;18.884;2023-05-10T08:02:47;3.97;;;3.22;;
56720;SDS011;53183;47.412;18.884;2023-05-10T08:05:14;5.20;;;2.65;;
56720;SDS011;53183;47.412;18.884;2023-05-10T08:07:42;6.85;;;2.72;;
56720;SDS011;53183;47.412;18.884;2023-05-10T08:10:10;8.98;;;2.95;;
56720;SDS011;53183;47.412;18.884;2023-05-10T08:12:40;6.07;;;3.75;;
56720;SDS011;53183;47.412;18.884;2023-05-10T08:15:07;3.58;;;2.72;;
56720;SDS011;53183;47.412;18.884;2023-05-10T08:17:35;5.62;;;3.00;;
56720;SDS011;53183;47.412;18.884;2023-05-10T08:20:02;7.85;;;2.83;;
56720;SDS011;53183;47.412;18.884;2023-05-10T08:22:30;15.98;;;3.15;;
56720;SDS011;53183;47.412;18.884;2023-05-10T08:24:57;17.10;;;3.35;;
56720;SDS011;53183;47.412;18.884;2023-05-10T08:27:24;8.02;;;2.97;;
56720;SDS011;53183;47.412;18.884;2023-05-10T08:29:52;9.38;;;3.03;;
56720;SDS011;53183;47.412;18.884;2023-05-10T08:32:19;4.78;;;2.67;;
56720;SDS011;53183;47.412;18.884;2023-05-10T08:34:46;12.20;;;3.03;;
56720;SDS011;53183;47.412;18.884;2023-05-10T08:37:13;7.28;;;2.95;;
56720;SDS011;53183;47.412;18.884;2023-05-10T08:39:41;4.78;;;2.95;;
56720;SDS011;53183;47.412;18.884;2023-05-10T08:42:08;4.03;;;2.45;;
56720;SDS011;53183;47.412;18.884;2023-05-10T08:44:36;7.47;;;3.00;;
56720;SDS011;53183;47.412;18.884;2023-05-10T08:47:04;15.82;;;2.95;;
56720;SDS011;53183;47.412;18.884;2023-05-10T08:49:35;7.53;;;2.80;;
56720;SDS011;53183;47.412;18.884;2023-05-10T08:52:04;10.85;;;3.83;;
56720;SDS011;53183;47.412;18.884;2023-05-10T08:54:34;7.62;;;2.67;;
56720;SDS011;53183;47.412;18.884;2023-05-10T08:57:01;17.65;;;3.37;;
56720;SDS011;53183;47.412;18.884;2023-05-10T08:59:29;9.07;;;2.78;;
56720;SDS011;53183;47.412;18.884;2023-05-10T09:01:59;5.35;;;2.40;;
56720;SDS011;53183;47.412;18.884;2023-05-10T09:04:27;14.25;;;2.60;;
56720;SDS011;53183;47.412;18.884;2023-05-10T09:06:56;10.32;;;2.80;;
56720;SDS011;53183;47.412;18.884;2023-05-10T09:09:24;4.53;;;2.22;;
56720;SDS011;53183;47.412;18.884;2023-05-10T09:11:52;15.98;;;3.30;;
56720;SDS011;53183;47.412;18.884;2023-05-10T09:14:20;11.82;;;3.72;;
56720;SDS011;53183;47.412;18.884;2023-05-10T09:16:51;10.52;;;3.08;;
56720;SDS011;53183;47.412;18.884;2023-05-10T09:19:20;34.42;;;3.60;;
56720;SDS011;53183;47.412;18.884;2023-05-10T09:21:48;53.90;;;5.05;;
56720;SDS011;53183;47.412;18.884;2023-05-10T09:24:16;25.85;;;2.97;;
56720;SDS011;53183;47.412;18.884;2023-05-10T09:26:46;20.80;;;4.05;;
56720;SDS011;53183;47.412;18.884;2023-05-10T09:29:18;33.00;;;3.65;;
56720;SDS011;53183;47.412;18.884;2023-05-10T09:31:46;4.57;;;2.45;;
56720;SDS011;53183;47.412;18.884;2023-05-10T09:34:18;26.10;;;2.90;;
56720;SDS011;53183;47.412;18.884;2023-05-10T09:36:51;5.40;;;2.45;;
56720;SDS011;53183;47.412;18.884;2023-05-10T09:39:38;2.85;;;2.12;;
56720;SDS011;53183;47.412;18.884;2023-05-10T09:42:06;5.53;;;2.03;;
56720;SDS011;53183;47.412;18.884;2023-05-10T09:44:37;6.65;;;2.78;;
56720;SDS011;53183;47.412;18.884;2023-05-10T09:47:05;7.93;;;2.33;;
56720;SDS011;53183;47.412;18.884;2023-05-10T09:49:32;4.95;;;2.70;;
56720;SDS011;53183;47.412;18.884;2023-05-10T09:52:00;6.18;;;2.42;;
56720;SDS011;53183;47.412;18.884;2023-05-10T09:54:31;8.52;;;2.15;;
56720;SDS011;53183;47.412;18.884;2023-05-10T09:57:00;6.60;;;2.45;;
56720;SDS011;53183;47.412;18.884;2023-05-10T09:59:27;2.95;;;2.28;;
56720;SDS011;53183;47.412;18.884;2023-05-10T10:01:58;2.70;;;2.08;;
56720;SDS011;53183;47.412;18.884;2023-05-10T10:04:27;46.28;;;4.87;;
56720;SDS011;53183;47.412;18.884;2023-05-10T10:07:04;3.50;;;2.45;;
56720;SDS011;53183;47.412;18.884;2023-05-10T10:09:32;7.12;;;2.10;;
56720;SDS011;53183;47.412;18.884;2023-05-10T10:12:01;4.75;;;2.33;;
56720;SDS011;53183;47.412;18.884;2023-05-10T10:14:29;4.50;;;2.60;;
56720;SDS011;53183;47.412;18.884;2023-05-10T10:16:57;3.87;;;2.83;;
56720;SDS011;53183;47.412;18.884;2023-05-10T10:19:30;3.78;;;2.33;;
56720;SDS011;53183;47.412;18.884;2023-05-10T10:22:00;4.85;;;2.47;;
56720;SDS011;53183;47.412;18.884;2023-05-10T10:24:27;4.97;;;2.37;;
56720;SDS011;53183;47.412;18.884;2023-05-10T10:26:55;9.77;;;2.20;;
56720;SDS011;53183;47.412;18.884;2023-05-10T10:29:49;5.87;;;2.70;;
56720;SDS011;53183;47.412;18.884;2023-05-10T10:32:26;6.20;;;2.33;;
56720;SDS011;53183;47.412;18.884;2023-05-10T10:35:14;2.87;;;2.50;;
56720;SDS011;53183;47.412;18.884;2023-05-10T10:37:43;3.83;;;2.15;;
56720;SDS011;53183;47.412;18.884;2023-05-10T10:40:24;3.95;;;2.30;;
56720;SDS011;53183;47.412;18.884;2023-05-10T10:48:47;6.18;;;1.98;;
56720;SDS011;53183;47.412;18.884;2023-05-10T10:51:16;2.67;;;1.87;;
56720;SDS011;53183;47.412;18.884;2023-05-10T10:53:43;5.12;;;3.85;;
56720;SDS011;53183;47.412;18.884;2023-05-10T10:56:12;2.78;;;1.70;;
56720;SDS011;53183;47.412;18.884;2023-05-10T10:58:42;3.15;;;1.98;;
56720;SDS011;53183;47.412;18.884;2023-05-10T11:01:20;2.10;;;1.58;;
56720;SDS011;53183;47.412;18.884;2023-05-10T11:06:31;11.40;;;3.30;;
56720;SDS011;53183;47.412;18.884;2023-05-10T11:08:59;8.75;;;1.85;;
56720;SDS011;53183;47.412;18.884;2023-05-10T11:11:32;4.12;;;1.60;;
56720;SDS011;53183;47.412;18.884;2023-05-10T11:14:05;6.18;;;2.10;;
56720;SDS011;53183;47.412;18.884;2023-05-10T11:16:40;5.20;;;2.50;;
56720;SDS011;53183;47.412;18.884;2023-05-10T11:19:15;1.98;;;1.37;;
56720;SDS011;53183;47.412;18.884;2023-05-10T11:21:51;1.92;;;1.48;;
56720;SDS011;53183;47.412;18.884;2023-05-10T11:24:39;3.10;;;1.90;;
56720;SDS011;53183;47.412;18.884;2023-05-10T11:27:07;3.37;;;2.00;;
56720;SDS011;53183;47.412;18.884;2023-05-10T11:29:34;4.87;;;1.73;;
56720;SDS011;53183;47.412;18.884;2023-05-10T11:32:01;1.90;;;1.58;;
56720;SDS011;53183;47.412;18.884;2023-05-10T11:34:31;4.87;;;1.77;;
56720;SDS011;53183;47.412;18.884;2023-05-10T11:37:01;3.47;;;1.58;;
56720;SDS011;53183;47.412;18.884;2023-05-10T11:39:29;1.55;;;1.20;;
56720;SDS011;53183;47.412;18.884;2023-05-10T11:41:58;4.87;;;1.48;;
56720;SDS011;53183;47.412;18.884;2023-05-10T11:44:29;2.72;;;1.85;;
56720;SDS011;53183;47.412;18.884;2023-05-10T11:49:27;2.50;;;1.65;;
56720;SDS011;53183;47.412;18.884;2023-05-10T11:52:07;1.87;;;1.50;;
56720;SDS011;53183;47.412;18.884;2023-05-10T11:54:35;2.55;;;1.42;;
56720;SDS011;53183;47.412;18.884;2023-05-10T11:57:03;5.90;;;2.10;;
56720;SDS011;53183;47.412;18.884;2023-05-10T11:59:31;2.78;;;1.50;;
56720;SDS011;53183;47.412;18.884;2023-05-10T12:01:58;3.78;;;1.45;;
56720;SDS011;53183;47.412;18.884;2023-05-10T12:04:26;1.92;;;1.58;;
56720;SDS011;53183;47.412;18.884;2023-05-10T12:06:56;3.65;;;1.40;;
56720;SDS011;53183;47.412;18.884;2023-05-10T12:09:23;1.73;;;1.20;;
56720;SDS011;53183;47.412;18.884;2023-05-10T12:12:09;4.55;;;1.50;;
56720;SDS011;53183;47.412;18.884;2023-05-10T12:14:36;12.00;;;1.65;;
56720;SDS011;53183;47.412;18.884;2023-05-10T12:17:03;4.43;;;1.40;;
56720;SDS011;53183;47.412;18.884;2023-05-10T12:19:38;4.40;;;1.70;;
56720;SDS011;53183;47.412;18.884;2023-05-10T12:22:06;2.65;;;1.60;;
56720;SDS011;53183;47.412;18.884;2023-05-10T12:24:34;5.87;;;2.70;;
56720;SDS011;53183;47.412;18.884;2023-05-10T12:27:05;3.03;;;1.62;;
56720;SDS011;53183;47.412;18.884;2023-05-10T12:29:35;3.60;;;2.22;;
56720;SDS011;53183;47.412;18.884;2023-05-10T12:32:02;2.35;;;1.40;;
56720;SDS011;53183;47.412;18.884;2023-05-10T12:34:30;5.18;;;1.37;;
56720;SDS011;53183;47.412;18.884;2023-05-10T12:37:00;1.62;;;1.37;;
56720;SDS011;53183;47.412;18.884;2023-05-10T12:39:38;5.75;;;2.00;;
56720;SDS011;53183;47.412;18.884;2023-05-10T12:42:10;2.55;;;1.42;;
56720;SDS011;53183;47.412;18.884;2023-05-10T12:44:37;4.43;;;1.52;;
56720;SDS011;53183;47.412;18.884;2023-05-10T12:47:05;2.05;;;1.45;;
56720;SDS011;53183;47.412;18.884;2023-05-10T12:49:33;2.87;;;1.42;;
56720;SDS011;53183;47.412;18.884;2023-05-10T12:52:00;3.55;;;1.40;;
56720;SDS011;53183;47.412;18.884;2023-05-10T12:54:27;3.95;;;1.50;;
56720;SDS011;53183;47.412;18.884;2023-05-10T12:56:55;5.22;;;1.45;;
56720;SDS011;53183;47.412;18.884;2023-05-10T12:59:22;3.65;;;1.40;;
56720;SDS011;53183;47.412;18.884;2023-05-10T13:01:49;4.72;;;1.10;;
56720;SDS011;53183;47.412;18.884;2023-05-10T13:04:17;4.32;;;1.30;;
56720;SDS011;53183;47.412;18.884;2023-05-10T13:06:44;1.62;;;1.30;;
56720;SDS011;53183;47.412;18.884;2023-05-10T13:09:11;16.52;;;2.28;;
56720;SDS011;53183;47.412;18.884;2023-05-10T13:11:39;22.62;;;2.53;;
56720;SDS011;53183;47.412;18.884;2023-05-10T13:14:07;3.30;;;1.20;;
56720;SDS011;53183;47.412;18.884;2023-05-10T13:16:34;5.18;;;1.83;;
56720;SDS011;53183;47.412;18.884;2023-05-10T13:19:01;1.65;;;1.20;;
56720;SDS011;53183;47.412;18.884;2023-05-10T13:21:28;2.72;;;1.20;;
56720;SDS011;53183;47.412;18.884;2023-05-10T13:23:55;2.25;;;1.48;;
56720;SDS011;53183;47.412;18.884;2023-05-10T13:26:22;3.00;;;1.45;;
56720;SDS011;53183;47.412;18.884;2023-05-10T13:28:50;5.75;;;1.30;;
56720;SDS011;53183;47.412;18.884;2023-05-10T13:31:18;13.50;;;1.45;;
56720;SDS011;53183;47.412;18.884;2023-05-10T13:33:46;6.60;;;1.65;;
56720;SDS011;53183;47.412;18.884;2023-05-10T13:36:13;8.02;;;1.52;;
56720;SDS011;53183;47.412;18.884;2023-05-10T13:38:40;6.10;;;1.42;;
56720;SDS011;53183;47.412;18.884;2023-05-10T13:41:07;5.80;;;1.30;;
56720;SDS011;53183;47.412;18.884;2023-05-10T13:43:34;7.72;;;1.25;;
56720;SDS011;53183;47.412;18.884;2023-05-10T13:46:02;9.32;;;1.50;;
56720;SDS011;53183;47.412;18.884;2023-05-10T13:48:30;6.40;;;1.40;;
56720;SDS011;53183;47.412;18.884;2023-05-10T13:50:57;54.03;;;5.07;;
56720;SDS011;53183;47.412;18.884;2023-05-10T13:53:23;33.47;;;2.50;;
56720;SDS011;53183;47.412;18.884;2023-05-10T13:55:51;11.88;;;1.60;;
56720;SDS011;53183;47.412;18.884;2023-05-10T13:58:18;20.62;;;1.70;;
56720;SDS011;53183;47.412;18.884;2023-05-10T14:00:45;43.08;;;2.55;;
56720;SDS011;53183;47.412;18.884;2023-05-10T14:03:13;11.77;;;1.73;;
56720;SDS011;53183;47.412;18.884;2023-05-10T14:05:40;35.55;;;3.10;;
56720;SDS011;53183;47.412;18.884;2023-05-10T14:08:07;10.40;;;2.87;;
56720;SDS011;53183;47.412;18.884;2023-05-10T14:10:36;7.97;;;2.12;;
56720;SDS011;53183;47.412;18.884;2023-05-10T14:13:03;11.80;;;2.08;;
56720;SDS011;53183;47.412;18.884;2023-05-10T14:15:30;3.05;;;1.60;;
56720;SDS011;53183;47.412;18.884;2023-05-10T14:17:57;9.07;;;2.00;;
56720;SDS011;53183;47.412;18.884;2023-05-10T14:20:25;4.45;;;2.00;;
56720;SDS011;53183;47.412;18.884;2023-05-10T14:22:52;13.52;;;2.00;;
56720;SDS011;53183;47.412;18.884;2023-05-10T14:25:19;9.77;;;2.00;;
56720;SDS011;53183;47.412;18.884;2023-05-10T14:27:46;9.25;;;1.60;;
56720;SDS011;53183;47.412;18.884;2023-05-10T14:30:14;11.98;;;1.55;;
56720;SDS011;53183;47.412;18.884;2023-05-10T14:32:42;5.28;;;1.60;;
56720;SDS011;53183;47.412;18.884;2023-05-10T14:35:09;3.45;;;1.62;;
56720;SDS011;53183;47.412;18.884;2023-05-10T14:37:40;5.53;;;1.50;;
56720;SDS011;53183;47.412;18.884;2023-05-10T14:40:07;11.30;;;1.30;;
56720;SDS011;53183;47.412;18.884;2023-05-10T14:42:35;6.22;;;1.20;;
56720;SDS011;53183;47.412;18.884;2023-05-10T14:45:03;8.45;;;1.27;;
56720;SDS011;53183;47.412;18.884;2023-05-10T14:47:31;1.83;;;1.30;;
56720;SDS011;53183;47.412;18.884;2023-05-10T14:49:58;5.72;;;1.12;;
56720;SDS011;53183;47.412;18.884;2023-05-10T14:52:25;1.67;;;1.10;;
56720;SDS011;53183;47.412;18.884;2023-05-10T14:54:52;5.12;;;1.52;;
56720;SDS011;53183;47.412;18.884;2023-05-10T14:57:20;11.32;;;2.53;;
56720;SDS011;53183;47.412;18.884;2023-05-10T14:59:47;10.60;;;2.28;;
56720;SDS011;53183;47.412;18.884;2023-05-10T15:02:15;9.93;;;2.20;;
56720;SDS011;53183;47.412;18.884;2023-05-10T15:04:43;6.18;;;1.15;;
56720;SDS011;53183;47.412;18.884;2023-05-10T15:07:11;5.97;;;1.30;;
56720;SDS011;53183;47.412;18.884;2023-05-10T15:09:41;2.72;;;1.15;;
56720;SDS011;53183;47.412;18.884;2023-05-10T15:12:08;2.53;;;1.37;;
56720;SDS011;53183;47.412;18.884;2023-05-10T15:14:35;7.57;;;1.12;;
56720;SDS011;53183;47.412;18.884;2023-05-10T15:17:05;1.73;;;1.05;;
56720;SDS011;53183;47.412;18.884;2023-05-10T15:19:34;2.22;;;1.42;;
56720;SDS011;53183;47.412;18.884;2023-05-10T15:22:01;2.50;;;1.37;;
56720;SDS011;53183;47.412;18.884;2023-05-10T15:24:29;4.15;;;1.35;;
56720;SDS011;53183;47.412;18.884;2023-05-10T15:26:56;1.30;;;1.00;;
56720;SDS011;53183;47.412;18.884;2023-05-10T15:29:23;2.58;;;0.80;;
56720;SDS011;53183;47.412;18.884;2023-05-10T15:31:51;4.15;;;1.12;;
56720;SDS011;53183;47.412;18.884;2023-05-10T15:34:18;2.55;;;1.00;;